Time;durP1;ratioP1;P1;durP2;ratioP2;P2;SDS_P1;SDS_P2;PMS_P1;PMS_P2;Temp;Humidity;BMP_temperature;BMP_pressure;BME280_temperature;BME280_humidity;BME280_pressure;Samples;Min_cycle;Max_cycle;Signal;HPM_P1;HPM_P2
2023/06/05 00:00:36;;;;;;;;;;;18.10;99.90;;;;;;5031182;28;19913;-64
2023/06/05 00:03:02;;;;;;;;;;;18.00;99.90;;;;;;5030597;28;20564;-64
2023/06/05 00:05:31;;;;;;;;;;;18.10;99.90;;;;;;5025034;28;19967;-62
2023/06/05 00:07:58;;;;;;;;;;;18.20;99.90;;;;;;5030671;28;20046;-64
2023/06/05 00:10:25;;;;;;;;;;;18.30;99.90;;;;;;5030323;28;19915;-64
2023/06/05 00:12:51;;;;;;;;;;;18.30;99.90;;;;;;5030221;28;19909;-64
2023/06/05 00:15:18;;;;;;;;;;;18.30;99.90;;;;;;5031510;28;19972;-63
2023/06/05 00:17:45;;;;;;;;;;;18.30;99.90;;;;;;5030556;28;19925;-63
2023/06/05 00:20:12;;;;;;;;;;;18.40;99.90;;;;;;5031629;28;20373;-65
2023/06/05 00:22:44;;;;;;;;;;;18.40;99.90;;;;;;5030923;28;19909;-64
2023/06/05 00:25:11;;;;;;;;;;;18.40;99.90;;;;;;5027027;28;19983;-64
2023/06/05 00:27:40;;;;;;;;;;;18.40;99.90;;;;;;5029774;28;19909;-63
2023/06/05 00:30:08;;;;;;;;;;;18.50;99.90;;;;;;5031594;28;19913;-64
2023/06/05 00:32:35;;;;;;;;;;;18.60;99.90;;;;;;5030294;28;19909;-64
2023/06/05 00:35:02;;;;;;;;;;;18.70;99.90;;;;;;5035638;28;20429;-63
2023/06/05 00:37:28;;;;;;;;;;;18.80;99.80;;;;;;5034155;28;20401;-63
2023/06/05 00:39:55;;;;;;;;;;;18.90;99.90;;;;;;5035037;28;19909;-65
2023/06/05 00:42:21;;;;;;;;;;;18.90;99.90;;;;;;5034236;28;20247;-63
2023/06/05 00:44:48;;;;;;;;;;;18.90;99.30;;;;;;5033970;28;19909;-64
2023/06/05 00:47:15;;;;;;;;;;;19.00;99.30;;;;;;5028416;28;19913;-63
2023/06/05 00:49:42;;;;;;;;;;;19.00;99.20;;;;;;5034753;28;20388;-63
2023/06/05 00:52:09;;;;;;;;;;;19.20;99.30;;;;;;5025696;28;19920;-63
2023/06/05 00:54:35;;;;;;;;;;;19.30;98.10;;;;;;5034573;28;20050;-64
2023/06/05 00:57:02;;;;;;;;;;;19.40;97.70;;;;;;5033989;28;19975;-64
2023/06/05 00:59:31;;;;;;;;;;;19.40;97.60;;;;;;5031745;28;20461;-63
2023/06/05 01:01:59;;;;;;;;;;;19.60;97.50;;;;;;5033954;28;19909;-64
2023/06/05 01:04:26;;;;;;;;;;;19.80;97.40;;;;;;5029389;28;19913;-65
2023/06/05 01:06:53;;;;;;;;;;;19.80;97.20;;;;;;5034247;28;20324;-62
2023/06/05 01:09:19;;;;;;;;;;;20.00;97.20;;;;;;5034555;28;19913;-64
2023/06/05 01:12:05;;;;;;;;;;;20.10;96.80;;;;;;5034271;28;19909;-63
2023/06/05 01:14:34;;;;;;;;;;;20.20;96.40;;;;;;5034048;28;19909;-64
2023/06/05 01:17:02;;;;;;;;;;;20.30;96.00;;;;;;5034013;28;19917;-63
2023/06/05 01:19:31;;;;;;;;;;;20.40;96.40;;;;;;5034652;28;20393;-63
2023/06/05 01:22:01;;;;;;;;;;;20.40;95.80;;;;;;5024859;28;19909;-63
2023/06/05 01:24:28;;;;;;;;;;;20.30;95.60;;;;;;5014356;28;19925;-64
2023/06/05 01:27:02;;;;;;;;;;;20.20;96.30;;;;;;5014133;28;20341;-64
2023/06/05 01:29:35;;;;;;;;;;;20.00;95.60;;;;;;5015477;28;19920;-65
2023/06/05 01:32:06;;;;;;;;;;;19.90;95.70;;;;;;5024354;28;19915;-63
2023/06/05 01:34:33;;;;;;;;;;;19.70;96.00;;;;;;5033260;28;20358;-65
2023/06/05 01:37:00;;;;;;;;;;;19.90;95.60;;;;;;5033906;28;20354;-64
2023/06/05 01:39:27;;;;;;;;;;;19.70;95.70;;;;;;5034567;28;19992;-65
2023/06/05 01:41:55;;;;;;;;;;;19.60;95.60;;;;;;5034252;28;20319;-62
2023/06/05 01:44:22;;;;;;;;;;;19.50;95.80;;;;;;5028839;28;20029;-64
2023/06/05 01:46:49;;;;;;;;;;;19.40;96.20;;;;;;5033240;28;19909;-64
2023/06/05 01:49:16;;;;;;;;;;;19.30;96.20;;;;;;5033668;28;20267;-63
2023/06/05 01:51:43;;;;;;;;;;;19.40;96.80;;;;;;5033858;28;19909;-64
2023/06/05 01:54:09;;;;;;;;;;;19.40;96.80;;;;;;5033268;28;20028;-64
2023/06/05 01:56:36;;;;;;;;;;;19.50;96.90;;;;;;5033095;28;19963;-65
2023/06/05 01:59:06;;;;;;;;;;;19.60;97.00;;;;;;5034447;28;19913;-64
2023/06/05 02:01:34;;;;;;;;;;;19.70;96.50;;;;;;5033764;28;19909;-65
2023/06/05 02:04:04;;;;;;;;;;;19.70;97.20;;;;;;5015669;28;19945;-62
2023/06/05 02:06:44;;;;;;;;;;;19.70;97.70;;;;;;5031261;28;20366;-64
2023/06/05 02:09:12;;;;;;;;;;;19.80;97.90;;;;;;5035597;28;19913;-63
2023/06/05 02:11:39;;;;;;;;;;;19.80;99.40;;;;;;5032794;28;19913;-63
2023/06/05 02:14:12;;;;;;;;;;;19.60;99.90;;;;;;5033802;28;20278;-64
2023/06/05 02:16:40;;;;;;;;;;;19.70;99.90;;;;;;5032428;28;19924;-63
2023/06/05 02:19:07;;;;;;;;;;;19.80;99.90;;;;;;5021531;28;19944;-63
2023/06/05 02:21:33;;;;;;;;;;;19.80;99.90;;;;;;5019839;28;19913;-64
2023/06/05 02:24:00;;;;;;;;;;;19.60;99.90;;;;;;5032888;28;19909;-65
2023/06/05 02:26:27;;;;;;;;;;;19.50;99.90;;;;;;5032606;28;20362;-63
2023/06/05 02:28:54;;;;;;;;;;;19.30;99.90;;;;;;5033266;28;19955;-63
2023/06/05 02:31:25;;;;;;;;;;;19.40;99.90;;;;;;5029081;28;19917;-64
2023/06/05 02:33:53;;;;;;;;;;;19.70;99.90;;;;;;5013566;28;20051;-64
2023/06/05 02:36:20;;;;;;;;;;;19.90;99.90;;;;;;5012692;28;19909;-64
2023/06/05 02:38:49;;;;;;;;;;;20.20;99.90;;;;;;5015466;28;19924;-63
2023/06/05 02:41:17;;;;;;;;;;;20.40;99.90;;;;;;5014053;28;19909;-65
2023/06/05 02:43:44;;;;;;;;;;;20.40;99.90;;;;;;5033072;28;19913;-64
2023/06/05 02:46:11;;;;;;;;;;;20.30;99.90;;;;;;5032549;28;19924;-65
2023/06/05 02:48:38;;;;;;;;;;;20.20;99.90;;;;;;5032455;28;19921;-63
2023/06/05 02:51:06;;;;;;;;;;;20.30;99.80;;;;;;5032522;28;20346;-63
2023/06/05 02:53:32;;;;;;;;;;;20.20;99.90;;;;;;5013985;28;19913;-65
2023/06/05 02:56:01;;;;;;;;;;;20.20;99.90;;;;;;5017146;28;20160;-65
2023/06/05 02:58:28;;;;;;;;;;;20.10;99.90;;;;;;5032007;28;19921;-64
2023/06/05 03:00:55;;;;;;;;;;;20.00;99.90;;;;;;5017554;28;19913;-63
2023/06/05 03:03:26;;;;;;;;;;;20.00;99.80;;;;;;5032665;28;19917;-63
2023/06/05 03:05:53;;;;;;;;;;;19.70;99.90;;;;;;5032487;28;19971;-64
2023/06/05 03:08:19;;;;;;;;;;;19.70;99.90;;;;;;5031072;28;20028;-63
2023/06/05 03:10:46;;;;;;;;;;;19.80;99.50;;;;;;5032170;28;19919;-62
2023/06/05 03:13:13;;;;;;;;;;;19.80;99.70;;;;;;5014271;28;19916;-63
2023/06/05 03:15:39;;;;;;;;;;;19.90;99.10;;;;;;5032661;28;19967;-65
2023/06/05 03:18:06;;;;;;;;;;;20.00;99.50;;;;;;5031118;28;19921;-63
2023/06/05 03:20:34;;;;;;;;;;;20.10;98.80;;;;;;5032093;28;19921;-63
2023/06/05 03:23:00;;;;;;;;;;;20.20;99.20;;;;;;5031454;28;20003;-64
2023/06/05 03:25:27;;;;;;;;;;;20.30;98.60;;;;;;5032593;28;19910;-62
2023/06/05 03:27:54;;;;;;;;;;;20.40;98.40;;;;;;5031269;28;19909;-65
2023/06/05 03:30:20;;;;;;;;;;;21.10;97.90;;;;;;5031696;28;19920;-64
2023/06/05 03:32:47;;;;;;;;;;;21.80;96.40;;;;;;5023095;28;19920;-65
2023/06/05 03:35:14;;;;;;;;;;;21.90;95.60;;;;;;5025755;28;19913;-63
2023/06/05 03:37:40;;;;;;;;;;;21.70;96.20;;;;;;5030483;28;19932;-63
2023/06/05 03:40:08;;;;;;;;;;;21.50;97.10;;;;;;5031861;28;19920;-63
2023/06/05 03:42:35;;;;;;;;;;;21.80;96.80;;;;;;5031128;28;20366;-64
2023/06/05 03:45:02;;;;;;;;;;;22.80;95.30;;;;;;5031216;28;20023;-64
2023/06/05 03:47:28;;;;;;;;;;;23.90;93.30;;;;;;5024778;28;19957;-63
2023/06/05 03:49:55;;;;;;;;;;;24.00;92.70;;;;;;5031006;28;19948;-64
2023/06/05 03:52:25;;;;;;;;;;;23.50;91.60;;;;;;5030870;28;19916;-63
2023/06/05 03:54:55;;;;;;;;;;;22.40;92.40;;;;;;5031061;28;20537;-64
2023/06/05 03:57:22;;;;;;;;;;;22.00;93.60;;;;;;5029058;28;20356;-65
2023/06/05 03:59:49;;;;;;;;;;;22.30;93.30;;;;;;5029370;28;19920;-63
2023/06/05 04:02:15;;;;;;;;;;;22.40;93.80;;;;;;5019799;28;19913;-65
2023/06/05 04:04:42;;;;;;;;;;;22.40;93.50;;;;;;5029693;28;20019;-64
2023/06/05 04:07:09;;;;;;;;;;;22.40;93.70;;;;;;5030794;28;19917;-64
2023/06/05 04:09:35;;;;;;;;;;;22.30;93.60;;;;;;5034372;28;19935;-63
2023/06/05 04:12:03;;;;;;;;;;;22.20;94.10;;;;;;5032981;28;19913;-64
2023/06/05 04:14:29;;;;;;;;;;;22.10;93.30;;;;;;5029128;28;20318;-64
2023/06/05 04:16:56;;;;;;;;;;;21.90;93.90;;;;;;5015309;28;19921;-65
2023/06/05 04:19:23;;;;;;;;;;;21.90;94.10;;;;;;5020429;28;19928;-64
2023/06/05 04:21:51;;;;;;;;;;;21.60;93.10;;;;;;5032226;28;19913;-65
2023/06/05 04:24:17;;;;;;;;;;;21.20;93.40;;;;;;5017048;28;20358;-63
2023/06/05 04:26:45;;;;;;;;;;;20.70;94.20;;;;;;5023416;28;19913;-65
2023/06/05 04:29:15;;;;;;;;;;;20.40;95.90;;;;;;5033966;28;19972;-65
2023/06/05 04:31:42;;;;;;;;;;;19.80;98.60;;;;;;5030523;28;19913;-66
2023/06/05 04:34:09;;;;;;;;;;;19.50;99.20;;;;;;5016165;28;20568;-65
2023/06/05 04:36:36;;;;;;;;;;;19.30;99.90;;;;;;5015694;28;19924;-65
2023/06/05 04:39:14;;;;;;;;;;;19.10;99.90;;;;;;5030092;28;19913;-65
2023/06/05 04:41:47;;;;;;;;;;;18.80;99.90;;;;;;5033781;28;19917;-64
2023/06/05 04:44:16;;;;;;;;;;;18.60;99.90;;;;;;5034433;28;19913;-63
2023/06/05 04:46:43;;;;;;;;;;;18.60;99.90;;;;;;5031473;28;19921;-64
2023/06/05 04:49:10;;;;;;;;;;;18.40;99.90;;;;;;5032141;28;19921;-65
2023/06/05 04:51:37;;;;;;;;;;;18.40;99.90;;;;;;5024079;28;19913;-65
2023/06/05 04:54:05;;;;;;;;;;;18.20;99.90;;;;;;5034897;28;20353;-65
2023/06/05 04:56:35;;;;;;;;;;;18.30;99.90;;;;;;5034180;28;19909;-64
2023/06/05 04:59:02;;;;;;;;;;;18.20;99.90;;;;;;5034677;28;19945;-65
2023/06/05 05:01:29;;;;;;;;;;;17.80;99.90;;;;;;5028927;28;19968;-64
2023/06/05 05:03:56;;;;;;;;;;;17.50;99.90;;;;;;5014989;28;19973;-65
2023/06/05 05:06:25;;;;;;;;;;;17.30;99.90;;;;;;5014579;28;19946;-64
2023/06/05 05:08:52;;;;;;;;;;;17.30;99.90;;;;;;5020936;28;20484;-65
2023/06/05 05:11:19;;;;;;;;;;;17.40;99.90;;;;;;5029656;28;19913;-64
2023/06/05 05:13:48;;;;;;;;;;;17.40;99.90;;;;;;5031581;28;19913;-65
2023/06/05 05:16:15;;;;;;;;;;;17.50;99.90;;;;;;5017474;28;19921;-64
2023/06/05 05:18:43;;;;;;;;;;;17.50;99.90;;;;;;5031679;28;20020;-65
2023/06/05 05:21:10;;;;;;;;;;;17.70;99.90;;;;;;5027810;28;19993;-64
2023/06/05 05:23:37;;;;;;;;;;;17.80;99.90;;;;;;5028365;28;19913;-64
2023/06/05 05:26:04;;;;;;;;;;;17.70;99.90;;;;;;5030246;28;19974;-64
2023/06/05 05:28:31;;;;;;;;;;;17.70;99.90;;;;;;5021259;28;19913;-65
2023/06/05 05:30:58;;;;;;;;;;;17.80;99.90;;;;;;5015712;28;19913;-65
2023/06/05 05:33:25;;;;;;;;;;;17.90;99.90;;;;;;5017503;28;19956;-64
2023/06/05 05:35:51;;;;;;;;;;;17.90;99.90;;;;;;5033006;28;19913;-67
2023/06/05 05:38:18;;;;;;;;;;;18.10;99.90;;;;;;5033133;28;19922;-65
2023/06/05 05:40:45;;;;;;;;;;;18.50;99.90;;;;;;5034041;28;19952;-64
2023/06/05 05:43:11;;;;;;;;;;;18.80;99.90;;;;;;5029505;28;20058;-64
2023/06/05 05:45:39;;;;;;;;;;;18.70;99.90;;;;;;5032125;28;19913;-64
2023/06/05 05:48:06;;;;;;;;;;;18.70;99.90;;;;;;5025235;28;19921;-66
2023/06/05 05:50:33;;;;;;;;;;;18.80;99.90;;;;;;5031780;28;19917;-64
2023/06/05 05:53:00;;;;;;;;;;;18.90;99.90;;;;;;5032153;28;19909;-65
2023/06/05 05:55:27;;;;;;;;;;;19.00;99.90;;;;;;5032685;28;19992;-64
2023/06/05 05:57:53;;;;;;;;;;;19.20;99.90;;;;;;5028833;28;19963;-64
2023/06/05 06:00:21;;;;;;;;;;;19.40;99.90;;;;;;5027376;28;19913;-66
2023/06/05 06:02:47;;;;;;;;;;;19.40;99.90;;;;;;5030299;28;20425;-65
2023/06/05 06:05:14;;;;;;;;;;;19.20;99.90;;;;;;5032515;28;19972;-65
2023/06/05 06:07:42;;;;;;;;;;;19.00;99.90;;;;;;5022409;28;19917;-63
2023/06/05 06:10:09;;;;;;;;;;;18.70;99.90;;;;;;5026227;28;19925;-66
2023/06/05 06:12:36;;;;;;;;;;;18.60;99.90;;;;;;5031510;28;19920;-65
2023/06/05 06:15:03;;;;;;;;;;;18.40;99.90;;;;;;5032071;28;19915;-67
2023/06/05 06:17:30;;;;;;;;;;;18.10;99.90;;;;;;5028455;28;20290;-65
2023/06/05 06:19:57;;;;;;;;;;;18.10;99.90;;;;;;5031771;28;19913;-63
2023/06/05 06:22:24;;;;;;;;;;;17.90;99.90;;;;;;5031677;28;19917;-62
2023/06/05 06:24:52;;;;;;;;;;;17.60;99.90;;;;;;5030192;28;19932;-64
2023/06/05 06:27:18;;;;;;;;;;;17.60;99.90;;;;;;5029050;28;19921;-64
2023/06/05 06:29:55;;;;;;;;;;;17.40;99.90;;;;;;5031220;28;20293;-64
2023/06/05 06:32:22;;;;;;;;;;;17.20;99.90;;;;;;5015467;28;20430;-64
2023/06/05 06:34:50;;;;;;;;;;;17.20;99.90;;;;;;5029586;28;19964;-63
2023/06/05 06:37:16;;;;;;;;;;;17.10;99.90;;;;;;5024637;28;19928;-64
2023/06/05 06:39:44;;;;;;;;;;;16.90;99.90;;;;;;5029692;28;19952;-63
2023/06/05 06:42:11;;;;;;;;;;;16.90;99.90;;;;;;5007762;28;20234;-64
2023/06/05 06:44:37;;;;;;;;;;;16.70;99.90;;;;;;5030863;28;19928;-64
2023/06/05 06:47:04;;;;;;;;;;;16.60;99.90;;;;;;5030482;28;19913;-63
2023/06/05 06:49:31;;;;;;;;;;;16.50;99.90;;;;;;5028294;28;20308;-65
2023/06/05 06:51:57;;;;;;;;;;;16.50;99.90;;;;;;5029426;28;19915;-67
2023/06/05 06:54:28;;;;;;;;;;;16.50;99.90;;;;;;5031139;28;20004;-65
2023/06/05 06:56:55;;;;;;;;;;;16.50;99.90;;;;;;5030349;28;19909;-62
2023/06/05 06:59:22;;;;;;;;;;;16.60;99.90;;;;;;5028930;28;19952;-63
2023/06/05 07:02:08;;;;;;;;;;;16.50;99.90;;;;;;5011663;28;19917;-63
2023/06/05 07:04:35;;;;;;;;;;;16.50;99.90;;;;;;5030639;28;19959;-66
2023/06/05 07:07:02;;;;;;;;;;;16.40;99.90;;;;;;5020920;28;20351;-64
2023/06/05 07:09:28;;;;;;;;;;;16.40;99.90;;;;;;5025625;28;19961;-62
2023/06/05 07:11:55;;;;;;;;;;;16.30;99.90;;;;;;5023398;28;19916;-64
2023/06/05 07:14:22;;;;;;;;;;;16.20;99.90;;;;;;5031049;28;19916;-63
2023/06/05 07:16:51;;;;;;;;;;;16.20;99.90;;;;;;5030618;28;19955;-65
2023/06/05 07:19:18;;;;;;;;;;;16.20;99.90;;;;;;5031123;28;19917;-62
2023/06/05 07:21:44;;;;;;;;;;;16.10;99.90;;;;;;5029684;28;19913;-64
2023/06/05 07:24:11;;;;;;;;;;;16.00;99.90;;;;;;5020992;28;19924;-62
2023/06/05 07:26:38;;;;;;;;;;;16.00;99.90;;;;;;5028129;28;19914;-65
2023/06/05 07:29:04;;;;;;;;;;;16.00;99.90;;;;;;5029009;28;19921;-65
2023/06/05 07:31:31;;;;;;;;;;;15.90;99.90;;;;;;5021170;28;19913;-66
2023/06/05 07:33:58;;;;;;;;;;;16.00;99.90;;;;;;5030909;28;20362;-66
2023/06/05 07:36:24;;;;;;;;;;;15.90;99.90;;;;;;5031141;28;19913;-65
2023/06/05 07:38:54;;;;;;;;;;;15.90;99.90;;;;;;5021016;28;19925;-65
2023/06/05 07:41:21;;;;;;;;;;;15.90;99.90;;;;;;5015249;28;20367;-66
2023/06/05 07:43:47;;;;;;;;;;;15.90;99.90;;;;;;5012633;28;20428;-66
2023/06/05 07:46:16;;;;;;;;;;;15.90;99.90;;;;;;5027168;28;19913;-65
2023/06/05 07:48:42;;;;;;;;;;;15.90;99.90;;;;;;5013022;28;19921;-66
2023/06/05 07:51:10;;;;;;;;;;;15.90;99.90;;;;;;5022809;28;19919;-64
2023/06/05 07:53:36;;;;;;;;;;;15.90;99.90;;;;;;5029631;28;19916;-67
2023/06/05 07:56:03;;;;;;;;;;;15.80;99.90;;;;;;5025306;28;19917;-65
2023/06/05 07:58:30;;;;;;;;;;;15.90;99.90;;;;;;5027780;28;20019;-66
2023/06/05 08:00:56;;;;;;;;;;;15.90;99.90;;;;;;5029540;28;19932;-67
2023/06/05 08:03:23;;;;;;;;;;;15.90;99.90;;;;;;5029849;28;19913;-64
2023/06/05 08:05:50;;;;;;;;;;;15.80;99.90;;;;;;5024584;28;19909;-65
2023/06/05 08:08:17;;;;;;;;;;;15.80;99.90;;;;;;5010539;28;19916;-65
2023/06/05 08:10:44;;;;;;;;;;;15.90;99.90;;;;;;5029732;28;19917;-65
2023/06/05 08:13:11;;;;;;;;;;;15.90;99.90;;;;;;5030906;28;19909;-66
2023/06/05 08:15:41;;;;;;;;;;;15.90;99.90;;;;;;5028135;28;19910;-64
2023/06/05 08:18:08;;;;;;;;;;;15.80;99.90;;;;;;5011101;28;19925;-66
2023/06/05 08:20:35;;;;;;;;;;;15.80;99.90;;;;;;5011265;28;20286;-65
2023/06/05 08:23:01;;;;;;;;;;;15.90;99.90;;;;;;5012192;28;19988;-64
2023/06/05 08:25:28;;;;;;;;;;;15.80;99.90;;;;;;5014644;28;19921;-66
2023/06/05 08:27:55;;;;;;;;;;;15.90;99.90;;;;;;5021563;28;19920;-65
2023/06/05 08:30:21;;;;;;;;;;;16.00;99.90;;;;;;5029460;28;19913;-64
2023/06/05 08:32:48;;;;;;;;;;;16.00;99.90;;;;;;5027302;28;19920;-64
2023/06/05 08:35:15;;;;;;;;;;;16.00;99.90;;;;;;5013103;28;19913;-64
2023/06/05 08:37:41;;;;;;;;;;;16.00;99.90;;;;;;5024985;28;20004;-65
2023/06/05 08:40:12;;;;;;;;;;;16.00;99.90;;;;;;5016587;28;20008;-65
2023/06/05 08:42:39;;;;;;;;;;;16.10;99.90;;;;;;5012609;28;19918;-63
2023/06/05 08:45:07;;;;;;;;;;;16.00;99.90;;;;;;5018639;28;19914;-65
2023/06/05 08:47:35;;;;;;;;;;;16.10;99.90;;;;;;5029671;28;19920;-64
2023/06/05 08:50:03;;;;;;;;;;;16.10;99.90;;;;;;5026798;28;19921;-65
2023/06/05 08:52:33;;;;;;;;;;;16.10;99.90;;;;;;5016959;28;19939;-66
2023/06/05 08:55:00;;;;;;;;;;;16.10;99.90;;;;;;5031786;28;19941;-65
2023/06/05 08:57:28;;;;;;;;;;;16.10;99.90;;;;;;5031300;28;19927;-65
2023/06/05 08:59:55;;;;;;;;;;;16.10;99.90;;;;;;5021491;28;19920;-65
2023/06/05 09:02:21;;;;;;;;;;;16.10;99.90;;;;;;5033082;28;19924;-65
2023/06/05 09:04:49;;;;;;;;;;;16.10;99.90;;;;;;5031976;28;20305;-63
2023/06/05 09:07:16;;;;;;;;;;;16.20;99.90;;;;;;5032011;28;20255;-63
2023/06/05 09:09:43;;;;;;;;;;;16.10;99.90;;;;;;5030989;28;20011;-65
2023/06/05 09:12:10;;;;;;;;;;;16.10;99.90;;;;;;5031087;28;19913;-67
2023/06/05 09:14:37;;;;;;;;;;;16.20;99.90;;;;;;5028460;28;19960;-65
2023/06/05 09:17:05;;;;;;;;;;;16.10;99.90;;;;;;5016332;28;19925;-65
2023/06/05 09:19:39;;;;;;;;;;;16.10;99.90;;;;;;5027566;28;19913;-66
2023/06/05 09:22:09;;;;;;;;;;;16.10;99.90;;;;;;5019680;28;20342;-65
2023/06/05 09:24:37;;;;;;;;;;;16.10;99.90;;;;;;5029082;28;19920;-65
2023/06/05 09:27:10;;;;;;;;;;;16.20;99.90;;;;;;5015607;28;19913;-66
2023/06/05 09:29:41;;;;;;;;;;;16.10;99.90;;;;;;5031335;28;19967;-68
2023/06/05 09:32:17;;;;;;;;;;;16.20;99.90;;;;;;5030871;28;19913;-64
2023/06/05 09:34:45;;;;;;;;;;;16.10;99.90;;;;;;5027469;28;19961;-66
2023/06/05 09:37:12;;;;;;;;;;;16.10;99.90;;;;;;4998692;28;20445;-66
2023/06/05 09:39:43;;;;;;;;;;;16.10;99.90;;;;;;5027091;28;19967;-65
2023/06/05 09:42:09;;;;;;;;;;;16.10;99.90;;;;;;5018731;28;19948;-65
2023/06/05 09:44:37;;;;;;;;;;;16.10;99.90;;;;;;5002636;28;20008;-65
2023/06/05 09:47:08;;;;;;;;;;;16.20;99.90;;;;;;5028531;28;19944;-65
2023/06/05 09:49:41;;;;;;;;;;;16.20;99.90;;;;;;5027190;28;19925;-65
2023/06/05 09:52:08;;;;;;;;;;;16.20;99.90;;;;;;5034080;28;20540;-66
2023/06/05 09:54:36;;;;;;;;;;;16.10;99.90;;;;;;5033837;28;19968;-65
2023/06/05 09:57:04;;;;;;;;;;;16.20;99.90;;;;;;5030708;28;19922;-67
2023/06/05 09:59:31;;;;;;;;;;;16.20;99.90;;;;;;5030892;28;19917;-64
2023/06/05 10:02:04;;;;;;;;;;;16.20;99.90;;;;;;5033253;28;19909;-64
2023/06/05 10:04:33;;;;;;;;;;;16.10;99.90;;;;;;5033201;28;19917;-67
2023/06/05 10:07:01;;;;;;;;;;;16.20;99.90;;;;;;5022943;28;20342;-63
2023/06/05 10:09:30;;;;;;;;;;;16.10;99.90;;;;;;5032212;28;19983;-65
2023/06/05 10:11:57;;;;;;;;;;;16.10;99.90;;;;;;5033148;28;19909;-64
2023/06/05 10:14:24;;;;;;;;;;;16.10;99.90;;;;;;5033270;28;19909;-64
2023/06/05 10:16:54;;;;;;;;;;;16.10;99.90;;;;;;5033164;28;20379;-63
2023/06/05 10:19:21;;;;;;;;;;;16.00;99.90;;;;;;5014926;28;19944;-66
2023/06/05 10:21:48;;;;;;;;;;;16.10;99.90;;;;;;5031358;28;19909;-67
2023/06/05 10:24:21;;;;;;;;;;;16.00;99.90;;;;;;5019318;28;19917;-64
2023/06/05 10:26:56;;;;;;;;;;;16.10;99.90;;;;;;5024447;28;20315;-67
2023/06/05 10:29:33;;;;;;;;;;;16.00;99.90;;;;;;5015668;28;19980;-65
2023/06/05 10:32:26;;;;;;;;;;;16.00;99.90;;;;;;5019034;28;20293;-66
2023/06/05 10:34:53;;;;;;;;;;;16.00;99.90;;;;;;5007532;28;19946;-65
2023/06/05 10:37:30;;;;;;;;;;;16.00;99.90;;;;;;5031612;28;19925;-65
2023/06/05 10:39:57;;;;;;;;;;;16.00;99.90;;;;;;5030818;28;19980;-64
2023/06/05 10:42:25;;;;;;;;;;;16.00;99.90;;;;;;5032422;28;19967;-65
2023/06/05 10:44:52;;;;;;;;;;;16.00;99.90;;;;;;5029607;28;19924;-64
2023/06/05 10:47:33;;;;;;;;;;;16.00;99.90;;;;;;5027770;28;20450;-66
2023/06/05 10:50:22;;;;;;;;;;;16.00;99.90;;;;;;5030265;28;19921;-65
2023/06/05 10:52:57;;;;;;;;;;;16.10;99.90;;;;;;5030996;28;19917;-63
2023/06/05 10:55:25;;;;;;;;;;;16.00;99.90;;;;;;5031714;28;19920;-64
2023/06/05 10:58:06;;;;;;;;;;;16.10;99.90;;;;;;5025490;28;19928;-66
2023/06/05 11:00:33;;;;;;;;;;;16.00;99.90;;;;;;5028778;28;19914;-63
2023/06/05 11:03:01;;;;;;;;;;;16.00;99.90;;;;;;5032091;28;19913;-66
2023/06/05 11:05:28;;;;;;;;;;;16.10;99.90;;;;;;5032271;28;19913;-65
2023/06/05 11:08:10;;;;;;;;;;;16.10;99.90;;;;;;5027861;28;20001;-65
2023/06/05 11:10:36;;;;;;;;;;;16.10;99.90;;;;;;5014776;28;20359;-66
2023/06/05 11:13:03;;;;;;;;;;;16.10;99.90;;;;;;5031310;28;19944;-66
2023/06/05 11:15:30;;;;;;;;;;;16.10;99.90;;;;;;5030046;28;19959;-65
2023/06/05 11:17:56;;;;;;;;;;;16.10;99.90;;;;;;5023745;28;19922;-63
2023/06/05 11:20:23;;;;;;;;;;;16.00;99.90;;;;;;5012856;28;19940;-64
2023/06/05 11:22:52;;;;;;;;;;;16.00;99.90;;;;;;5015100;28;19920;-64
2023/06/05 11:25:24;;;;;;;;;;;16.10;99.90;;;;;;5030463;28;20297;-64
2023/06/05 11:27:51;;;;;;;;;;;16.10;99.90;;;;;;5031940;28;19940;-66
2023/06/05 11:30:22;;;;;;;;;;;16.10;99.90;;;;;;5030757;28;19924;-66
2023/06/05 11:32:52;;;;;;;;;;;16.10;99.90;;;;;;5030090;28;19936;-65
2023/06/05 11:35:22;;;;;;;;;;;16.10;99.90;;;;;;5032370;28;19917;-63
2023/06/05 11:37:48;;;;;;;;;;;16.00;99.90;;;;;;5032510;28;19948;-64
2023/06/05 11:40:24;;;;;;;;;;;16.10;99.90;;;;;;5031376;28;20012;-64
2023/06/05 11:42:51;;;;;;;;;;;16.00;99.90;;;;;;5031086;28;19913;-62
2023/06/05 11:45:17;;;;;;;;;;;16.00;99.90;;;;;;5031955;28;19920;-64
2023/06/05 11:47:44;;;;;;;;;;;16.10;99.90;;;;;;5031857;28;19917;-64
2023/06/05 11:50:17;;;;;;;;;;;16.00;99.90;;;;;;5031925;28;20020;-64
2023/06/05 11:52:44;;;;;;;;;;;16.10;99.90;;;;;;5032282;28;19909;-64
2023/06/05 11:55:22;;;;;;;;;;;16.10;99.90;;;;;;5032100;28;19913;-64
2023/06/05 11:57:52;;;;;;;;;;;16.10;99.90;;;;;;5031944;28;20328;-64
2023/06/05 12:00:26;;;;;;;;;;;16.00;99.90;;;;;;5032445;28;19916;-64
2023/06/05 12:02:53;;;;;;;;;;;16.10;99.90;;;;;;5032543;28;19995;-66
2023/06/05 12:05:20;;;;;;;;;;;16.20;99.90;;;;;;5032032;28;19913;-68
2023/06/05 12:07:48;;;;;;;;;;;16.10;99.90;;;;;;5032064;28;19988;-67
2023/06/05 12:10:14;;;;;;;;;;;16.10;99.90;;;;;;5028802;28;20262;-67
2023/06/05 12:12:53;;;;;;;;;;;16.10;99.90;;;;;;5031842;28;19909;-65
2023/06/05 12:15:21;;;;;;;;;;;16.10;99.90;;;;;;5031916;28;19913;-65
2023/06/05 12:17:51;;;;;;;;;;;16.20;99.90;;;;;;5032086;28;19917;-65
2023/06/05 12:20:18;;;;;;;;;;;16.20;99.90;;;;;;5015688;28;19910;-63
2023/06/05 12:22:44;;;;;;;;;;;16.10;99.90;;;;;;5013014;28;19917;-64
2023/06/05 12:25:23;;;;;;;;;;;16.10;99.90;;;;;;5015098;28;19956;-64
2023/06/05 12:27:49;;;;;;;;;;;16.00;99.90;;;;;;5031677;28;20320;-65
2023/06/05 12:30:17;;;;;;;;;;;16.00;99.90;;;;;;5019898;28;19913;-63
2023/06/05 12:32:44;;;;;;;;;;;16.10;99.90;;;;;;5033220;28;19914;-63
2023/06/05 12:35:20;;;;;;;;;;;16.00;99.90;;;;;;5033913;28;19917;-62
2023/06/05 12:37:47;;;;;;;;;;;16.00;99.90;;;;;;5024452;28;20429;-65
2023/06/05 12:40:17;;;;;;;;;;;16.00;99.90;;;;;;5017171;28;20362;-64
2023/06/05 12:42:44;;;;;;;;;;;16.00;99.90;;;;;;5019571;28;19920;-65
2023/06/05 12:45:12;;;;;;;;;;;16.00;99.90;;;;;;5034248;28;20416;-64
2023/06/05 12:47:40;;;;;;;;;;;16.00;99.90;;;;;;5034073;28;20362;-66
2023/06/05 12:50:10;;;;;;;;;;;16.00;99.90;;;;;;5022565;28;19922;-64
2023/06/05 12:52:37;;;;;;;;;;;16.00;99.90;;;;;;5031510;28;19963;-65
2023/06/05 12:55:05;;;;;;;;;;;15.90;99.90;;;;;;5033876;28;20033;-65
2023/06/05 12:57:32;;;;;;;;;;;15.90;99.90;;;;;;5031279;28;19935;-66
2023/06/05 12:59:58;;;;;;;;;;;15.90;99.90;;;;;;5018054;28;19920;-65
2023/06/05 13:02:25;;;;;;;;;;;15.90;99.90;;;;;;5030347;28;20421;-64
2023/06/05 13:04:52;;;;;;;;;;;15.90;99.90;;;;;;5031830;28;19916;-67
2023/06/05 13:07:19;;;;;;;;;;;15.90;99.90;;;;;;5021015;28;19960;-64
2023/06/05 13:09:45;;;;;;;;;;;15.90;99.90;;;;;;5018034;28;20381;-66
2023/06/05 13:12:12;;;;;;;;;;;15.80;99.90;;;;;;5034188;28;19914;-65
2023/06/05 13:14:39;;;;;;;;;;;15.80;99.90;;;;;;5019762;28;19913;-64
2023/06/05 13:17:05;;;;;;;;;;;15.70;99.90;;;;;;5020522;28;19917;-64
2023/06/05 13:19:32;;;;;;;;;;;15.70;99.90;;;;;;5026812;28;19913;-63
2023/06/05 13:21:58;;;;;;;;;;;15.70;99.90;;;;;;5024293;28;19997;-64
2023/06/05 13:24:25;;;;;;;;;;;15.70;99.90;;;;;;5030547;28;19917;-65
2023/06/05 13:26:52;;;;;;;;;;;15.70;99.90;;;;;;5016323;28;19914;-66
2023/06/05 13:29:18;;;;;;;;;;;15.70;99.90;;;;;;5016366;28;19913;-65
2023/06/05 13:31:45;;;;;;;;;;;15.60;99.90;;;;;;5032047;28;19913;-66
2023/06/05 13:34:12;;;;;;;;;;;15.60;99.90;;;;;;5033522;28;19913;-67
2023/06/05 13:36:38;;;;;;;;;;;15.70;99.90;;;;;;5025628;28;19917;-66
2023/06/05 13:39:05;;;;;;;;;;;15.70;99.90;;;;;;5016280;28;19921;-66
2023/06/05 13:41:32;;;;;;;;;;;15.70;99.90;;;;;;5023578;28;19958;-64
2023/06/05 13:43:58;;;;;;;;;;;15.70;99.90;;;;;;5033180;28;19913;-66
2023/06/05 13:46:28;;;;;;;;;;;15.60;99.90;;;;;;5032904;28;19917;-67
2023/06/05 13:48:56;;;;;;;;;;;15.70;99.90;;;;;;5034147;28;19921;-66
2023/06/05 13:51:22;;;;;;;;;;;15.70;99.90;;;;;;5034290;28;19913;-66
2023/06/05 13:53:49;;;;;;;;;;;15.70;99.90;;;;;;5034502;28;20290;-66
2023/06/05 13:56:16;;;;;;;;;;;15.70;99.90;;;;;;5034329;28;19909;-66
2023/06/05 13:58:42;;;;;;;;;;;15.70;99.90;;;;;;5034398;28;19921;-65
2023/06/05 14:01:09;;;;;;;;;;;15.70;99.90;;;;;;5034843;28;19909;-67
2023/06/05 14:03:36;;;;;;;;;;;15.70;99.90;;;;;;5034879;28;19910;-67
2023/06/05 14:06:02;;;;;;;;;;;15.70;99.90;;;;;;5034641;28;20309;-66
2023/06/05 14:08:32;;;;;;;;;;;15.70;99.90;;;;;;5034426;28;20324;-67
2023/06/05 14:11:00;;;;;;;;;;;15.60;99.90;;;;;;5034244;28;19909;-67
2023/06/05 14:13:26;;;;;;;;;;;15.70;99.90;;;;;;5034351;28;19979;-67
2023/06/05 14:15:53;;;;;;;;;;;15.70;99.90;;;;;;5033967;28;19996;-66
2023/06/05 14:18:19;;;;;;;;;;;15.60;99.90;;;;;;5034032;28;20286;-66
2023/06/05 14:20:46;;;;;;;;;;;15.70;99.90;;;;;;5034284;28;19910;-65